Time;durP1;ratioP1;P1;durP2;ratioP2;P2;SDS_P1;SDS_P2;PMS_P1;PMS_P2;Temp;Humidity;BMP_temperature;BMP_pressure;BME280_temperature;BME280_humidity;BME280_pressure;Samples;Min_cycle;Max_cycle;Signal;HPM_P1;HPM_P2
2021/12/26 00:00:56;;;;;;;13.23;5.20;;;;;;;6.43;78.13;96110.88;5073363;28;20440;-33
2021/12/26 00:03:24;;;;;;;7.40;4.60;;;;;;;6.61;77.89;96131.91;5073268;28;20436;-34
2021/12/26 00:05:51;;;;;;;12.60;6.53;;;;;;;6.61;77.61;96136.38;5073064;28;20535;-32
2021/12/26 00:08:19;;;;;;;26.40;9.30;;;;;;;6.59;77.90;96136.59;5073042;28;20443;-32
2021/12/26 00:10:48;;;;;;;32.03;16.67;;;;;;;6.60;79.15;96132.13;5073220;28;20923;-32
2021/12/26 00:13:16;;;;;;;48.23;23.07;;;;;;;6.52;79.60;96126.16;5073298;28;20475;-32
2021/12/26 00:15:44;;;;;;;38.07;19.57;;;;;;;6.67;80.52;96143.41;5073234;28;20448;-32
2021/12/26 00:18:11;;;;;;;20.43;11.77;;;;;;;6.68;80.05;96145.00;5075638;28;20830;-32
2021/12/26 00:20:39;;;;;;;14.80;9.37;;;;;;;6.64;79.38;96149.13;5076557;28;20471;-33
2021/12/26 00:23:08;;;;;;;14.10;8.03;;;;;;;6.60;79.18;96148.75;5076898;28;20451;-33
2021/12/26 00:25:35;;;;;;;21.90;10.57;;;;;;;6.64;79.78;96160.47;5076878;28;20843;-33
2021/12/26 00:28:04;;;;;;;16.10;9.50;;;;;;;6.68;79.79;96160.81;5076555;28;20454;-32
2021/12/26 00:30:31;;;;;;;23.43;12.30;;;;;;;6.71;80.68;96161.19;5076523;28;20448;-33
2021/12/26 00:32:59;;;;;;;35.53;20.10;;;;;;;6.71;79.73;96160.34;5076788;28;20802;-33
2021/12/26 00:35:27;;;;;;;33.93;15.67;;;;;;;6.68;78.75;96164.25;5077311;28;20786;-33
2021/12/26 00:37:55;;;;;;;21.80;11.53;;;;;;;6.65;79.45;96156.00;5076468;28;20444;-32
2021/12/26 00:40:23;;;;;;;33.30;17.80;;;;;;;6.66;79.96;96157.59;5076673;28;20448;-33
2021/12/26 00:42:52;;;;;;;30.50;16.23;;;;;;;6.65;79.64;96153.38;5076311;28;20444;-33
2021/12/26 00:45:20;;;;;;;40.33;18.63;;;;;;;6.66;79.89;96154.97;5076706;28;20990;-33
2021/12/26 00:47:48;;;;;;;25.67;11.50;;;;;;;6.64;79.22;96149.91;5076565;28;20444;-33
2021/12/26 00:50:19;;;;;;;27.37;12.80;;;;;;;6.55;78.82;96138.88;5076149;28;20440;-33
2021/12/26 00:52:47;;;;;;;18.50;11.43;;;;;;;6.57;78.42;96150.00;5076250;28;20432;-34
2021/12/26 00:55:15;;;;;;;21.50;12.53;;;;;;;6.59;79.15;96141.09;5076027;28;20444;-33
2021/12/26 00:57:43;;;;;;;21.43;10.83;;;;;;;6.58;78.62;96142.91;5076055;28;20444;-33
2021/12/26 01:00:15;;;;;;;23.87;10.77;;;;;;;6.60;78.28;96147.97;5076898;28;20443;-33
2021/12/26 01:02:43;;;;;;;39.83;16.87;;;;;;;6.53;77.14;96158.59;5075998;28;20908;-32
2021/12/26 01:05:12;;;;;;;18.93;10.70;;;;;;;6.31;77.81;96134.59;5076173;28;20494;-33
2021/12/26 01:07:49;;;;;;;13.33;7.73;;;;;;;6.45;78.26;96158.94;5076606;28;20821;-33
2021/12/26 01:10:19;;;;;;;12.17;5.93;;;;;;;6.46;78.75;96160.53;5075943;28;20432;-33
2021/12/26 01:12:46;;;;;;;12.90;7.40;;;;;;;6.46;79.19;96153.44;5076360;28;20440;-33
2021/12/26 01:15:14;;;;;;;12.63;6.83;;;;;;;6.47;79.46;96149.75;5075842;28;20444;-33
2021/12/26 01:17:44;;;;;;;19.13;7.17;;;;;;;6.50;80.24;96148.53;5076054;28;20444;-32
2021/12/26 01:20:36;;;;;;;40.93;18.90;;;;;;;6.52;80.47;96149.91;5075826;28;20476;-33
2021/12/26 01:23:04;;;;;;;34.63;15.23;;;;;;;6.55;81.02;96141.53;5076274;28;20433;-33
2021/12/26 01:25:31;;;;;;;23.77;11.60;;;;;;;6.54;79.99;96139.13;5075433;28;20492;-33
2021/12/26 01:27:58;;;;;;;21.00;10.83;;;;;;;6.48;79.43;96145.31;5075361;28;20924;-33
2021/12/26 01:30:26;;;;;;;31.50;11.73;;;;;;;6.36;79.22;96140.78;5075129;28;20448;-32
2021/12/26 01:32:54;;;;;;;17.10;10.40;;;;;;;6.32;79.53;96155.47;5075749;28;20451;-32
2021/12/26 01:35:22;;;;;;;16.77;6.63;;;;;;;6.24;78.67;96150.50;5075336;28;20451;-33
2021/12/26 01:37:49;;;;;;;9.33;6.33;;;;;;;6.03;79.26;96149.16;5075748;28;20436;-32
2021/12/26 01:40:17;;;;;;;12.93;5.57;;;;;;;5.96;80.00;96153.72;5075286;28;20446;-32
2021/12/26 01:42:44;;;;;;;13.13;6.13;;;;;;;5.97;80.51;96155.31;5075232;28;20444;-33
2021/12/26 01:45:12;;;;;;;10.60;6.03;;;;;;;6.01;80.88;96140.69;5075106;28;21014;-32
2021/12/26 01:47:40;;;;;;;5.10;4.13;;;;;;;6.05;80.12;96135.78;5075234;28;20450;-33
2021/12/26 01:50:09;;;;;;;11.43;4.17;;;;;;;6.08;80.43;96138.75;5075127;28;20451;-33
2021/12/26 01:52:37;;;;;;;6.83;4.50;;;;;;;6.11;80.16;96140.16;5075067;28;20455;-33
2021/12/26 01:55:23;;;;;;;10.00;5.70;;;;;;;6.12;80.47;96136.47;5075039;28;20452;-33
2021/12/26 01:57:53;;;;;;;20.10;7.70;;;;;;;6.05;80.78;96141.84;5075235;28;20522;-32
2021/12/26 02:00:21;;;;;;;8.67;6.00;;;;;;;6.04;81.12;96140.22;5074918;28;20954;-32
2021/12/26 02:02:50;;;;;;;8.77;4.33;;;;;;;6.07;81.21;96142.41;5074961;28;20444;-32
2021/12/26 02:05:19;;;;;;;4.50;2.47;;;;;;;6.08;81.32;96148.50;5075122;28;20496;-33
2021/12/26 02:07:46;;;;;;;11.20;4.43;;;;;;;6.10;81.60;96144.59;5074718;28;20447;-31
2021/12/26 02:10:15;;;;;;;8.93;5.07;;;;;;;6.13;81.11;96144.16;5075001;28;20450;-32
2021/12/26 02:12:42;;;;;;;4.50;4.10;;;;;;;6.10;80.47;96147.22;5074675;28;20440;-32
2021/12/26 02:15:10;;;;;;;6.83;4.33;;;;;;;6.01;80.50;96145.94;5074949;28;20444;-32
2021/12/26 02:17:37;;;;;;;9.60;6.00;;;;;;;5.95;80.89;96138.94;5074598;28;20489;-33
2021/12/26 02:20:31;;;;;;;13.30;6.60;;;;;;;5.98;81.22;96151.69;5074310;28;20493;-32
2021/12/26 02:23:04;;;;;;;12.27;5.73;;;;;;;6.01;81.40;96145.94;5074534;28;20444;-32
2021/12/26 02:27:31;;;;;;;11.10;4.93;;;;;;;6.04;81.80;96145.47;5074434;28;20842;-31
2021/12/26 02:28:20;;;;;;;7.43;5.23;;;;;;;5.93;81.13;96139.09;5074340;28;20485;-33
2021/12/26 02:30:49;;;;;;;12.70;4.77;;;;;;;6.04;81.11;96149.97;5074274;28;20446;-31
2021/12/26 02:33:18;;;;;;;7.10;5.17;;;;;;;6.05;80.67;96160.28;5074582;28;20452;-31
2021/12/26 02:35:48;;;;;;;23.73;7.73;;;;;;;6.05;80.03;96157.66;5074515;28;20443;-32
2021/12/26 02:38:17;;;;;;;16.63;9.30;;;;;;;6.06;80.58;96150.53;5074079;28;20436;-31
2021/12/26 02:40:47;;;;;;;14.20;6.77;;;;;;;6.08;80.97;96146.66;5074207;28;20440;-32
2021/12/26 02:43:16;;;;;;;13.10;7.60;;;;;;;6.10;80.98;96157.78;5074288;28;20478;-31
2021/12/26 02:45:43;;;;;;;11.70;6.83;;;;;;;6.12;80.86;96152.28;5074291;28;20491;-32
2021/12/26 02:48:11;;;;;;;21.70;7.20;;;;;;;6.05;81.47;96147.09;5073908;28;20807;-34
2021/12/26 02:50:40;;;;;;;42.83;15.63;;;;;;;6.14;81.13;96150.25;5073473;28;20447;-33
2021/12/26 02:53:12;;;;;;;43.30;13.17;;;;;;;6.06;80.75;96147.91;5074135;28;20444;-32
2021/12/26 02:55:39;;;;;;;21.40;9.60;;;;;;;6.01;80.92;96131.97;5074105;28;20436;-32
2021/12/26 02:58:08;;;;;;;13.30;5.80;;;;;;;6.06;80.82;96143.44;5073830;28;20452;-33
2021/12/26 03:00:38;;;;;;;12.57;6.03;;;;;;;6.05;81.33;96154.22;5073824;28;20447;-32
2021/12/26 03:03:07;;;;;;;12.13;7.90;;;;;;;5.99;81.14;96158.53;5074282;28;20810;-32
2021/12/26 03:05:37;;;;;;;13.93;6.00;;;;;;;5.95;81.35;96162.63;5073903;28;20570;-33
2021/12/26 03:08:05;;;;;;;12.47;6.37;;;;;;;5.90;81.99;96159.84;5074125;28;20435;-33
2021/12/26 03:10:34;;;;;;;12.30;7.17;;;;;;;5.85;82.20;96155.25;5073532;28;20448;-31
2021/12/26 03:13:05;;;;;;;12.27;6.57;;;;;;;5.81;82.13;96145.34;5073951;28;20443;-33
2021/12/26 03:15:34;;;;;;;12.63;6.70;;;;;;;5.83;82.83;96153.84;5073755;28;20432;-33
2021/12/26 03:18:02;;;;;;;9.27;5.50;;;;;;;5.87;83.13;96150.56;5073523;28;20439;-34
2021/12/26 03:20:32;;;;;;;14.77;5.77;;;;;;;5.91;83.15;96150.91;5073218;28;21066;-34
2021/12/26 03:23:00;;;;;;;10.43;6.53;;;;;;;5.95;83.12;96147.63;5073584;28;20456;-34
2021/12/26 03:25:29;;;;;;;17.77;7.60;;;;;;;5.97;82.99;96144.78;5073681;28;20548;-33
2021/12/26 03:27:57;;;;;;;17.77;8.60;;;;;;;5.99;83.20;96150.63;5073364;28;20806;-33
2021/12/26 03:30:27;;;;;;;14.63;7.50;;;;;;;6.02;83.19;96144.91;5073398;28;20444;-33
2021/12/26 03:32:56;;;;;;;13.53;6.90;;;;;;;6.04;83.19;96150.75;5073660;28;20440;-33
2021/12/26 03:35:25;;;;;;;6.60;5.53;;;;;;;6.06;83.23;96151.34;5073333;28;20548;-33
2021/12/26 03:37:53;;;;;;;6.60;4.07;;;;;;;6.10;83.32;96154.34;5073524;28;20448;-33
2021/12/26 03:40:20;;;;;;;7.17;4.23;;;;;;;6.10;82.61;96160.41;5074398;28;20447;-33
2021/12/26 03:42:51;;;;;;;9.30;4.93;;;;;;;6.11;82.25;96162.03;5073333;28;20916;-33
2021/12/26 03:45:20;;;;;;;16.80;9.67;;;;;;;6.08;81.74;96165.09;5073171;28;20471;-33
2021/12/26 03:47:49;;;;;;;14.47;6.50;;;;;;;5.99;82.82;96163.81;5073478;28;20923;-33
2021/12/26 03:50:19;;;;;;;15.00;8.30;;;;;;;5.92;83.25;96165.69;5073149;28;20858;-33
2021/12/26 03:52:50;;;;;;;22.97;7.97;;;;;;;5.95;83.88;96157.38;5075644;28;20448;-33
2021/12/26 03:55:17;;;;;;;16.63;8.67;;;;;;;5.98;84.01;96162.22;5077645;28;20859;-33
2021/12/26 03:57:44;;;;;;;11.17;6.20;;;;;;;6.00;84.05;96165.44;5078103;28;20440;-33
2021/12/26 04:00:15;;;;;;;16.53;6.67;;;;;;;6.02;84.24;96163.34;5077159;28;20444;-33
2021/12/26 04:02:43;;;;;;;10.97;6.77;;;;;;;6.04;84.20;96179.75;5077278;28;20561;-33
2021/12/26 04:05:12;;;;;;;17.53;8.80;;;;;;;5.90;83.76;96154.56;5077378;28;20840;-33
2021/12/26 04:07:40;;;;;;;24.92;11.93;;;;;;;6.08;84.12;96186.19;5076926;28;20451;-33
2021/12/26 04:10:08;;;;;;;21.13;12.53;;;;;;;6.10;83.28;96186.78;5077004;28;20663;-33
2021/12/26 04:12:37;;;;;;;21.87;12.00;;;;;;;6.14;84.16;96187.13;5077305;28;20449;-33
2021/12/26 04:15:06;;;;;;;23.50;10.87;;;;;;;6.17;83.77;96186.69;5076882;28;20487;-33
2021/12/26 04:17:33;;;;;;;22.07;11.30;;;;;;;6.18;83.52;96182.22;5076941;28;20454;-33
2021/12/26 04:20:04;;;;;;;26.17;11.17;;;;;;;6.21;84.06;96187.03;5076698;28;20478;-32
2021/12/26 04:22:31;;;;;;;15.10;8.73;;;;;;;6.25;84.41;96172.41;5077602;28;20432;-32
2021/12/26 04:24:59;;;;;;;23.87;10.90;;;;;;;6.28;83.98;96174.56;5076666;28;20457;-33
2021/12/26 04:27:26;;;;;;;36.17;9.93;;;;;;;6.21;84.14;96168.59;5076801;28;20535;-33
2021/12/26 04:29:54;;;;;;;20.63;11.23;;;;;;;6.34;83.55;96171.84;5077073;28;20912;-32
2021/12/26 04:32:22;;;;;;;40.60;17.50;;;;;;;6.21;83.11;96160.69;5076618;28;20444;-34
2021/12/26 04:34:49;;;;;;;34.50;15.93;;;;;;;6.13;82.71;96141.53;5077162;28;20522;-33
2021/12/26 04:37:18;;;;;;;212.67;67.30;;;;;;;6.33;83.00;96180.78;5076547;28;20488;-33
2021/12/26 04:39:45;;;;;;;118.60;41.27;;;;;;;6.34;82.68;96171.03;5076591;28;20439;-33
2021/12/26 04:42:13;;;;;;;93.97;36.50;;;;;;;6.35;82.54;96167.41;5076419;28;20451;-34
2021/12/26 04:44:40;;;;;;;48.20;22.87;;;;;;;6.30;82.10;96175.16;5076721;28;20443;-33
2021/12/26 04:47:07;;;;;;;153.20;64.40;;;;;;;6.29;81.38;96178.84;5091937;28;20561;-35
2021/12/26 04:49:35;;;;;;;81.67;49.83;;;;;;;6.25;80.83;96167.91;5093121;28;20434;-35
2021/12/26 04:52:02;;;;;;;49.00;26.40;;;;;;;6.30;80.74;96165.44;5096324;28;20871;-34
2021/12/26 04:54:31;;;;;;;65.60;25.60;;;;;;;6.32;81.35;96181.00;5096813;28;20484;-33
2021/12/26 04:56:58;;;;;;;48.30;21.50;;;;;;;6.34;81.74;96186.88;5096822;28;20450;-34
2021/12/26 04:59:26;;;;;;;55.40;24.30;;;;;;;6.35;81.77;96184.00;5096338;28;20803;-33
2021/12/26 05:01:53;;;;;;;36.70;18.17;;;;;;;6.33;81.11;96166.81;5096681;28;20447;-32
2021/12/26 05:04:21;;;;;;;34.77;18.43;;;;;;;6.24;81.34;96157.59;5096801;28;20477;-33
2021/12/26 05:06:48;;;;;;;45.30;21.90;;;;;;;6.21;81.53;96153.56;5096113;28;20574;-32
2021/12/26 05:09:16;;;;;;;68.87;36.10;;;;;;;6.28;81.69;96164.03;5096188;28;20451;-32
2021/12/26 05:11:45;;;;;;;38.87;22.57;;;;;;;6.27;82.43;96181.69;5096409;28;20839;-33
2021/12/26 05:14:12;;;;;;;43.47;25.70;;;;;;;6.29;82.33;96178.84;5096011;28;20443;-32
2021/12/26 05:16:39;;;;;;;63.53;27.17;;;;;;;6.31;82.96;96176.78;5096110;28;20443;-33
2021/12/26 05:19:06;;;;;;;50.30;25.50;;;;;;;6.32;82.60;96173.94;5096080;28;20969;-33
2021/12/26 05:21:33;;;;;;;56.03;25.63;;;;;;;6.35;83.07;96170.03;5095953;28;20975;-32
2021/12/26 05:24:01;;;;;;;45.33;20.40;;;;;;;6.38;82.87;96177.47;5095987;28;20450;-31
2021/12/26 05:26:28;;;;;;;95.07;35.03;;;;;;;6.40;83.08;96175.44;5095821;28;21020;-32
2021/12/26 05:28:57;;;;;;;53.63;21.70;;;;;;;6.43;81.91;96192.63;5096059;28;20802;-32
2021/12/26 05:31:24;;;;;;;95.57;33.03;;;;;;;6.40;81.15;96180.69;5096100;28;20462;-31
2021/12/26 05:33:51;;;;;;;46.43;17.50;;;;;;;6.33;80.88;96180.00;5096030;28;20447;-31
2021/12/26 05:36:18;;;;;;;106.77;33.87;;;;;;;6.31;81.37;96179.41;5096016;28;20438;-32
2021/12/26 05:38:46;;;;;;;35.40;18.57;;;;;;;6.27;81.04;96176.41;5095927;28;20465;-33
2021/12/26 05:41:13;;;;;;;47.20;21.20;;;;;;;6.19;81.82;96181.19;5096385;28;20508;-33
2021/12/26 05:43:41;;;;;;;69.80;26.63;;;;;;;6.18;82.92;96176.97;5095757;28;20580;-32
2021/12/26 05:46:10;;;;;;;70.87;28.60;;;;;;;6.20;83.53;96186.25;5095348;28;21001;-32
2021/12/26 05:48:37;;;;;;;137.07;55.00;;;;;;;6.24;83.75;96187.41;5095758;28;20923;-31
2021/12/26 05:51:04;;;;;;;102.17;51.73;;;;;;;6.27;82.92;96186.97;5095732;28;20439;-32
2021/12/26 05:53:31;;;;;;;105.67;49.57;;;;;;;6.26;82.75;96184.53;5083137;28;20454;-33
2021/12/26 05:55:59;;;;;;;130.70;56.72;;;;;;;6.27;83.03;96186.16;5094479;28;20433;-34
2021/12/26 05:58:26;;;;;;;87.37;49.33;;;;;;;6.30;82.63;96196.25;5095576;28;20226;-33
2021/12/26 06:00:53;;;;;;;86.13;45.40;;;;;;;6.35;82.62;96199.03;5095237;28;20446;-33
2021/12/26 06:03:22;;;;;;;90.10;45.10;;;;;;;6.37;82.04;96215.44;5090051;28;20813;-34
2021/12/26 06:05:49;;;;;;;55.43;25.83;;;;;;;6.35;81.10;96213.00;5077485;28;20499;-33
2021/12/26 06:08:17;;;;;;;49.47;23.17;;;;;;;6.25;80.81;96204.03;5095074;28;20443;-33
2021/12/26 06:10:45;;;;;;;59.63;28.23;;;;;;;6.16;80.84;96200.91;5094921;28;20473;-33
2021/12/26 06:13:12;;;;;;;61.50;31.47;;;;;;;6.10;81.83;96207.84;5095185;28;20812;-33
2021/12/26 06:15:39;;;;;;;61.73;29.33;;;;;;;6.11;82.66;96213.94;5094473;28;20538;-33
2021/12/26 06:18:07;;;;;;;77.03;36.70;;;;;;;6.14;82.83;96214.28;5094896;28;20443;-34
2021/12/26 06:20:35;;;;;;;91.40;44.17;;;;;;;6.17;82.90;96218.31;5094511;28;20666;-32
2021/12/26 06:23:03;;;;;;;82.43;43.27;;;;;;;6.15;82.46;96217.72;5094863;28;20443;-33
2021/12/26 06:25:30;;;;;;;81.87;41.37;;;;;;;6.14;82.86;96224.84;5094669;28;20450;-33
2021/12/26 06:27:58;;;;;;;160.70;78.87;;;;;;;6.17;83.60;96233.31;5094980;28;20443;-34
2021/12/26 06:30:25;;;;;;;120.90;60.50;;;;;;;6.13;85.42;96232.97;5093252;28;20794;-35
2021/12/26 06:32:52;;;;;;;122.07;66.47;;;;;;;6.26;88.38;96235.44;5094482;28;20289;-33
2021/12/26 06:35:20;;;;;;;108.27;52.67;;;;;;;6.31;87.06;96240.06;5094829;28;20441;-33
2021/12/26 06:37:48;;;;;;;93.97;42.87;;;;;;;6.34;86.16;96240.41;5093879;28;20530;-33
2021/12/26 06:40:16;;;;;;;86.27;44.40;;;;;;;6.31;84.24;96245.31;5094647;28;20451;-33
2021/12/26 06:42:45;;;;;;;73.23;35.77;;;;;;;6.40;88.70;96245.81;5094373;28;20447;-33
2021/12/26 06:45:16;;;;;;;59.83;29.90;;;;;;;6.53;90.71;96251.72;5094288;28;20443;-34
2021/12/26 06:47:49;;;;;;;62.77;33.03;;;;;;;6.73;93.54;96248.81;5094191;28;20485;-34
2021/12/26 06:50:17;;;;;;;86.60;38.53;;;;;;;6.87;92.40;96244.16;5094229;28;20424;-34
2021/12/26 06:52:44;;;;;;;69.03;37.23;;;;;;;6.86;88.43;96253.09;5093591;28;20576;-35
2021/12/26 06:55:13;;;;;;;72.47;39.07;;;;;;;6.64;85.96;96212.41;5094344;28;20458;-34
2021/12/26 06:57:40;;;;;;;100.63;48.30;;;;;;;6.81;85.17;96249.53;5093630;28;20439;-35
2021/12/26 07:00:12;;;;;;;130.17;63.10;;;;;;;6.80;85.34;96248.72;5094013;28;20470;-34
2021/12/26 07:02:39;;;;;;;167.07;77.90;;;;;;;6.81;84.49;96247.69;5093979;28;20429;-34
2021/12/26 07:05:07;;;;;;;152.20;65.67;;;;;;;6.80;84.37;96254.00;5094105;28;20450;-34
2021/12/26 07:07:34;;;;;;;141.10;65.33;;;;;;;6.75;84.35;96259.13;5091723;28;20496;-35
2021/12/26 07:10:01;;;;;;;111.77;59.43;;;;;;;6.82;84.21;96246.66;5073873;28;20470;-33
2021/12/26 07:12:30;;;;;;;87.57;46.97;;;;;;;6.87;82.52;96262.63;5073566;28;20440;-34
2021/12/26 07:14:57;;;;;;;118.03;65.33;;;;;;;6.91;81.91;96260.34;5073868;28;20470;-34
2021/12/26 07:17:24;;;;;;;63.43;30.60;;;;;;;6.89;81.17;96252.63;5073043;28;20872;-36
2021/12/26 07:19:52;;;;;;;169.17;82.90;;;;;;;7.02;82.37;96250.84;5073451;28;20479;-35
2021/12/26 07:22:19;;;;;;;63.43;27.53;;;;;;;7.10;82.92;96253.16;5073751;28;20436;-35
2021/12/26 07:24:47;;;;;;;74.60;43.70;;;;;;;7.19;83.00;96257.06;5073360;28;20443;-33
2021/12/26 07:27:14;;;;;;;265.90;146.83;;;;;;;7.21;81.31;96260.28;5083207;28;20486;-35
2021/12/26 07:29:43;;;;;;;104.37;51.83;;;;;;;7.23;80.47;96260.88;5090249;28;20439;-34
2021/12/26 07:32:12;;;;;;;72.87;36.80;;;;;;;7.15;80.64;96274.38;5093811;28;20466;-35
2021/12/26 07:34:41;;;;;;;73.90;41.00;;;;;;;7.23;80.64;96263.50;5093639;28;20457;-36
2021/12/26 07:37:09;;;;;;;74.00;40.00;;;;;;;7.25;80.66;96253.53;5093832;28;20439;-34
2021/12/26 07:39:36;;;;;;;55.17;32.60;;;;;;;7.26;81.33;96268.31;5093488;28;20443;-34
2021/12/26 07:42:04;;;;;;;85.53;38.47;;;;;;;7.26;81.16;96263.03;5093011;28;20450;-35
2021/12/26 07:44:31;;;;;;;86.60;40.97;;;;;;;7.31;81.69;96257.91;5092976;28;20919;-35
2021/12/26 07:47:00;;;;;;;381.53;195.33;;;;;;;7.32;84.70;96270.06;5093586;28;20486;-34
2021/12/26 07:49:27;;;;;;;247.27;129.10;;;;;;;7.01;83.40;96228.09;5093213;28;20434;-35
2021/12/26 07:51:56;;;;;;;189.27;93.23;;;;;;;7.38;83.62;96279.72;5093643;28;20482;-35
2021/12/26 07:54:24;;;;;;;130.83;65.17;;;;;;;7.42;83.51;96292.44;5093358;28;20789;-34
2021/12/26 07:56:51;;;;;;;156.27;82.13;;;;;;;7.44;84.06;96298.31;5093650;28;20447;-34
2021/12/26 07:59:19;;;;;;;121.27;60.77;;;;;;;7.47;84.20;96301.31;5093001;28;20443;-34
2021/12/26 08:01:47;;;;;;;113.77;60.13;;;;;;;7.50;84.94;96294.75;5092472;28;20932;-34
2021/12/26 08:04:17;;;;;;;107.90;54.73;;;;;;;7.58;85.38;96299.69;5093390;28;20450;-34
2021/12/26 08:06:44;;;;;;;162.77;81.27;;;;;;;7.63;86.00;96305.09;5093401;28;20490;-34
2021/12/26 08:09:11;;;;;;;164.80;98.40;;;;;;;7.65;86.14;96308.31;5093980;28;20448;-34
2021/12/26 08:11:39;;;;;;;179.17;92.07;;;;;;;7.68;86.81;96292.00;5092538;28;20443;-33
2021/12/26 08:14:06;;;;;;;146.23;87.70;;;;;;;7.71;87.33;96291.53;5091768;28;20517;-35
2021/12/26 08:16:33;;;;;;;168.23;90.90;;;;;;;7.74;88.16;96285.81;5090213;28;20449;-35
2021/12/26 08:19:01;;;;;;;147.03;82.90;;;;;;;7.78;88.93;96281.66;5093096;28;20454;-33
2021/12/26 08:21:30;;;;;;;214.27;117.50;;;;;;;7.83;90.13;96294.19;5092965;28;20485;-34
2021/12/26 08:23:57;;;;;;;186.87;101.70;;;;;;;7.72;90.65;96287.88;5094101;28;20788;-35
2021/12/26 08:26:24;;;;;;;172.13;96.60;;;;;;;7.88;90.81;96304.06;5092481;28;20479;-33
2021/12/26 08:28:51;;;;;;;158.30;88.07;;;;;;;7.91;90.91;96316.81;5092261;28;20454;-34
2021/12/26 08:31:21;;;;;;;147.03;80.87;;;;;;;7.93;90.36;96304.19;5092653;28;20434;-33
2021/12/26 08:33:48;;;;;;;147.20;72.07;;;;;;;7.79;89.71;96288.56;5092888;28;20439;-34
2021/12/26 08:36:19;;;;;;;151.33;77.17;;;;;;;7.97;89.63;96306.13;5092692;28;20526;-33
2021/12/26 08:38:49;;;;;;;154.47;83.60;;;;;;;7.85;89.79;96281.56;5094631;28;20434;-34
2021/12/26 08:41:16;;;;;;;148.50;76.97;;;;;;;7.97;90.52;96302.69;5096432;28;20930;-34
2021/12/26 08:43:43;;;;;;;149.57;73.40;;;;;;;7.92;90.84;96297.28;5095840;28;20807;-34
2021/12/26 08:46:11;;;;;;;127.30;66.73;;;;;;;7.88;91.47;96280.28;5092281;28;20439;-35
2021/12/26 08:48:38;;;;;;;100.63;50.67;;;;;;;8.06;91.70;96303.94;5095938;28;20481;-34
2021/12/26 08:51:06;;;;;;;86.70;49.80;;;;;;;8.11;91.51;96305.88;5095931;28;20880;-35
2021/12/26 08:53:33;;;;;;;99.80;52.53;;;;;;;8.15;91.18;96310.50;5096065;28;20431;-34
2021/12/26 08:56:03;;;;;;;135.90;74.67;;;;;;;8.16;91.74;96296.22;5096477;28;20453;-33
2021/12/26 08:58:31;;;;;;;144.43;74.70;;;;;;;8.15;91.40;96281.41;5096970;28;20441;-33
2021/12/26 09:00:58;;;;;;;90.23;51.53;;;;;;;8.19;91.30;96281.72;5091952;28;20496;-35
2021/12/26 09:03:26;;;;;;;66.37;42.17;;;;;;;8.06;91.57;96260.81;5088044;28;20574;-35
2021/12/26 09:05:54;;;;;;;61.67;35.13;;;;;;;8.27;91.85;96283.22;5082370;28;20818;-34
2021/12/26 09:08:22;;;;;;;78.50;43.17;;;;;;;8.32;92.48;96280.66;5081713;28;20500;-35
2021/12/26 09:10:49;;;;;;;101.83;52.13;;;;;;;8.27;92.99;96283.22;5082641;28;20509;-34
2021/12/26 09:13:18;;;;;;;95.37;51.43;;;;;;;8.13;94.25;96254.38;5085298;28;20451;-34
2021/12/26 09:15:45;;;;;;;104.37;56.07;;;;;;;8.30;93.96;96272.97;5081918;28;20535;-34
2021/12/26 09:18:12;;;;;;;121.43;61.77;;;;;;;8.34;94.45;96278.59;5080473;28;20493;-33
2021/12/26 09:20:40;;;;;;;140.07;68.53;;;;;;;8.35;95.05;96277.56;5080161;28;20474;-34
2021/12/26 09:23:07;;;;;;;199.47;95.10;;;;;;;8.37;95.51;96278.13;5081359;28;20567;-35
2021/12/26 09:25:35;;;;;;;732.90;310.63;;;;;;;8.40;95.76;96269.72;5086251;28;20447;-34
2021/12/26 09:28:02;;;;;;;255.40;111.30;;;;;;;8.42;96.97;96265.03;5091376;28;20899;-33
2021/12/26 09:30:31;;;;;;;153.00;81.03;;;;;;;8.37;96.62;96264.91;5091140;28;22477;-34
2021/12/26 09:32:59;;;;;;;136.10;71.83;;;;;;;8.33;96.54;96256.63;5077694;28;20824;-35
2021/12/26 09:35:26;;;;;;;148.00;76.40;;;;;;;8.36;96.75;96264.09;5083434;28;20455;-34
2021/12/26 09:37:54;;;;;;;239.63;122.20;;;;;;;8.35;96.87;96253.75;5085029;28;20942;-34
2021/12/26 09:40:21;;;;;;;259.47;125.47;;;;;;;8.29;96.60;96239.63;5078690;28;20535;-33
2021/12/26 09:42:49;;;;;;;189.83;107.70;;;;;;;8.14;97.42;96221.59;5078256;28;20454;-33
2021/12/26 09:45:18;;;;;;;206.77;118.80;;;;;;;8.29;97.39;96244.13;5078051;28;20455;-35
2021/12/26 09:47:49;;;;;;;203.10;114.87;;;;;;;8.29;97.21;96254.69;5081659;28;20566;-35
2021/12/26 09:50:22;;;;;;;124.43;77.83;;;;;;;8.30;97.97;96257.09;5078442;28;20443;-34
2021/12/26 09:52:52;;;;;;;96.23;47.60;;;;;;;8.29;97.00;96259.97;5083875;28;20444;-33
2021/12/26 09:55:20;;;;;;;72.10;42.13;;;;;;;8.27;96.03;96256.75;5080369;28;20519;-33
2021/12/26 09:57:48;;;;;;;75.93;39.37;;;;;;;8.25;95.49;96248.25;5081648;28;20460;-33
2021/12/26 10:00:21;;;;;;;49.57;29.37;;;;;;;8.25;95.10;96248.25;5087089;28;20786;-34
2021/12/26 10:03:09;;;;;;;60.90;31.37;;;;;;;8.27;94.25;96254.13;5091940;28;20455;-33
2021/12/26 10:05:58;;;;;;;69.50;31.93;;;;;;;8.26;93.54;96226.06;5077989;28;20435;-35
2021/12/26 10:08:26;;;;;;;57.47;33.27;;;;;;;8.23;93.39;96224.69;5095060;28;20475;-33
2021/12/26 10:11:12;;;;;;;72.47;39.20;;;;;;;8.25;96.40;96219.16;5092580;28;20938;-34
2021/12/26 10:13:45;;;;;;;68.53;33.10;;;;;;;8.24;95.22;96204.31;5085161;28;20823;-34
2021/12/26 10:16:14;;;;;;;64.60;37.23;;;;;;;8.16;94.50;96205.50;5089265;28;20955;-35
2021/12/26 10:18:44;;;;;;;47.87;29.57;;;;;;;8.13;95.44;96203.31;5087647;28;21015;-34
2021/12/26 10:21:33;;;;;;;56.60;30.40;;;;;;;8.04;95.63;96194.97;5083729;28;20491;-34
2021/12/26 10:24:06;;;;;;;44.53;25.33;;;;;;;8.07;96.57;96199.78;5084846;28;20467;-33
2021/12/26 10:26:36;;;;;;;31.20;20.30;;;;;;;8.11;96.20;96190.34;5083880;28;21011;-34
2021/12/26 10:29:13;;;;;;;19.23;11.70;;;;;;;8.10;96.29;96195.88;5073085;28;20452;-33
2021/12/26 10:31:46;;;;;;;27.93;15.50;;;;;;;8.06;96.47;96182.31;5077053;28;20482;-33
2021/12/26 10:34:19;;;;;;;93.87;46.23;;;;;;;8.26;98.35;96191.66;5075260;28;20451;-33
2021/12/26 10:36:48;;;;;;;93.03;46.40;;;;;;;8.32;96.95;96182.78;5076795;28;20440;-35
2021/12/26 10:39:19;;;;;;;91.70;45.83;;;;;;;8.34;96.18;96175.44;5073795;28;20451;-33
2021/12/26 10:41:49;;;;;;;79.20;43.23;;;;;;;8.39;95.88;96178.97;5071144;28;20512;-35
2021/12/26 10:44:36;;;;;;;121.97;63.70;;;;;;;8.30;94.77;96161.06;5073158;28;20458;-34
2021/12/26 10:47:08;;;;;;;115.67;64.60;;;;;;;8.40;94.79;96180.59;5073538;28;20559;-34
2021/12/26 10:49:40;;;;;;;76.47;40.97;;;;;;;8.45;95.40;96171.16;5070505;28;20456;-34
2021/12/26 10:52:15;;;;;;;29.83;20.23;;;;;;;8.45;95.72;96179.09;5069490;28;20463;-33
2021/12/26 10:54:44;;;;;;;33.40;21.67;;;;;;;8.43;96.17;96176.69;5071936;28;21007;-33
2021/12/26 10:57:19;;;;;;;24.27;15.33;;;;;;;8.36;95.45;96181.28;5074769;28;20552;-33
2021/12/26 10:59:58;;;;;;;19.43;11.67;;;;;;;8.29;95.86;96180.63;5070190;28;20977;-33
2021/12/26 11:02:28;;;;;;;25.30;14.97;;;;;;;8.23;96.30;96186.88;5074980;28;20448;-36
2021/12/26 11:05:02;;;;;;;30.23;16.67;;;;;;;8.27;96.75;96177.44;5073526;28;20495;-34
2021/12/26 11:07:41;;;;;;;21.80;15.77;;;;;;;8.28;98.15;96189.59;5082379;28;20544;-35
2021/12/26 11:10:12;;;;;;;19.60;13.07;;;;;;;8.29;97.41;96180.63;5075737;28;20484;-33
2021/12/26 11:12:45;;;;;;;29.13;16.20;;;;;;;8.31;97.48;96178.56;5079388;28;20449;-33
2021/12/26 11:15:14;;;;;;;37.13;20.40;;;;;;;8.34;97.36;96178.06;5077585;28;20450;-32
2021/12/26 11:17:45;;;;;;;30.37;18.87;;;;;;;8.33;97.29;96182.56;5080353;28;20439;-35
2021/12/26 11:20:23;;;;;;;36.13;18.03;;;;;;;8.35;97.57;96174.41;5074808;28;20510;-34
2021/12/26 11:22:51;;;;;;;40.13;21.23;;;;;;;8.39;97.35;96181.63;5076537;28;20928;-34
2021/12/26 11:25:21;;;;;;;38.37;21.53;;;;;;;8.38;97.62;96171.28;5077204;28;20501;-35
2021/12/26 11:27:50;;;;;;;39.83;24.30;;;;;;;8.38;97.29;96171.28;5074395;28;20472;-34
2021/12/26 11:30:18;;;;;;;39.17;19.27;;;;;;;8.19;97.34;96158.25;5071609;28;20456;-33
2021/12/26 11:32:49;;;;;;;30.10;16.87;;;;;;;8.28;97.94;96163.16;5073597;28;20455;-34
2021/12/26 11:35:17;;;;;;;26.13;14.20;;;;;;;8.26;98.36;96170.50;5070784;28;20463;-33